Westby, Montana
Current Conditions -  °F | °C
As of 9:55 PM on Thursday 30 Oct 2014 (Local Time) from KD50 Reporting Station
Clear Clear  
Wind Chill: 16°   Ceiling: Unl
Heat Index: 25°   Visibility: 10mi
Dew Point: 23°   Wind: 8mph
Humidity: 93%   Direction: 150°SSE
Pressure: 30.53"   Gusts: NA
Location:  48.87°N, 104.05°W
Report Text: KD50 310355Z AUTO 15007KT 10SM CLR M04/M05 A3053 RMK AO2
Loading
Personal Weather Stations






























Interactive Weather Map
Tropical Storm Tracking
New forecast layout! Learn more

10-Day Weather Forecast

Advertisements
Track Severe Weather on mobile